Cross Village, MI

6:44 PM EST on January 25, 2015 (GMT -0500)
Pellston Regional Airport Of Emmet County | Change Station
CLOSE
Current Station
Airport
Location: Pellston,
Elevation: 719 ft
Nearby Weather Stations

Elev 719 ft 45.57 °N, 84.80 °W | Updated 50 minutes ago

Clear
Clear
11 °F
Feels Like 3 °F
N
5
Wind Variable Wind from ENE

Today
High -- | Low -- °F
--% Chance of Precip.
Yesterday
High -- | Low -- °F
Precip. -- in
8:09 AM 5:36 PM
Waxing Crescent, 37% visible
Pressure 30.13 in
Visibility 10.0 miles
Clouds Clear
Windchill 3 °F
Dew Point 2 °F
Humidity 67%
Rainfall 0.00 in
Snow Depth Not available.
UV 0 out of 12
Pollen .10 out of 12
Air Quality Not available.
Flu Activity Not available.
METAR KPLN 252254Z AUTO 06004KT 10SM CLR M12/M17 A3008 RMK AO2 SLP203 T11171167

More Conditions Fewer Conditions

Pressure 30.13 in
Visibility 10.0 miles
Clouds Clear
Windchill 3 °F
Dew Point 2 °F
Humidity 67%
Rainfall 0.00 in
Snow Depth Not available.
UV 0 out of 12
Pollen .10 out of 12
Air Quality Not available.
Flu Activity Not available.
METAR KPLN 252254Z AUTO 06004KT 10SM CLR M12/M17 A3008 RMK AO2 SLP203 T11171167

More Conditions Fewer Conditions

Nowcast | as of 6:00 PM EST on January 25, 2015

At 7 PM...mostly clear. Temperature 10 above. Light winds. At 9 PM...mostly clear. Temperature 7 above. Light winds. At 11 PM...mostly clear. Temperature 5 above. Light winds. At 1 am...clear. Temperature 4 above. Light winds.

×

10-Day Weather Forecast

Almanac

Astronomy

Jan. 25, 2015 Rise Set
Actual Time
Civil Twilight
Nautical Twilight
Astronomical Twilight
Moon
Length of Visible Light
Length of Day
Tomorrow will be .
, % of the Moon is Illuminated

Today's Extremes

State Highs State Lows

Community

WunderPhotos

Upload Photos

1,790,048 photos uploaded!

WunderBlogs® & News

Nearby

Air Quality

  Air Quality AQ Index Pollutant
Not available.

Snow Depth

Station Depth Elevation

Earthquake Activity

City Distance Mag. Time & Date
Minimum magnitude displayed is 2.5.

Coastal Water Temperatures

Place Temperature

Nearby Weather Stations